FKKR

Garoua International Airport

Garoua, Cameroon
METAR FKKR 201400Z 24004KT 9999 SCT016 FEW020CB 32/24 Q1009 NOSIG
Observed Flight Rules
Jul-20 @ 14:00 UTC (29 minutes ago) Visual Flight Rules
Wind Visibility Clouds
240° at 4 knots 10,000+ meters
  • Scattered at 1,600' AGL
  • Few at 2,000' AGL
Temperatures Readings
Current 32°C / 90°F
Dewpoint 24°C / 75°F
Humidity 63%
Altimeter 29.79" Hg
Pressure 1009 hPa
Elevation 244
METAR FKKR 201400Z 24004KT 9999 SCT016 FEW020CB 32/24 Q1009 NOSIG
Observed Flight Rules
Jul-20 @ 14:00 UTC
(29 minutes ago)
VFR
Wind Visibility
240° at 4 knots 10,000+ meters
Clouds
  • Scattered at 1,600' AGL
  • Few at 2,000' AGL
Temperature Dewpoint
32°C / 90°F 24°C / 75°F
Humidity Altimeter Pressure
63% 29.79" Hg 1009 hPa